createdAt,value
2018-08-24T00:00:22.719Z,58.34
2018-08-24T00:00:53.893Z,58.55
2018-08-24T00:01:25.112Z,58.51
2018-08-24T00:01:56.222Z,57.88
2018-08-24T00:02:27.327Z,58.51
2018-08-24T00:02:58.484Z,58.02
2018-08-24T00:03:29.662Z,58.67
2018-08-24T00:04:00.805Z,58.94
2018-08-24T00:04:31.957Z,57.98
2018-08-24T00:05:03.077Z,58.07
2018-08-24T00:05:34.241Z,58.43
2018-08-24T00:06:05.384Z,58.13
2018-08-24T00:06:36.570Z,58.59
2018-08-24T00:07:07.688Z,58.19
2018-08-24T00:07:38.804Z,58.04
2018-08-24T00:08:09.916Z,58.50
2018-08-24T00:08:41.147Z,57.75
2018-08-24T00:09:12.337Z,57.49
2018-08-24T00:09:43.448Z,57.41
2018-08-24T00:10:14.609Z,57.45
2018-08-24T00:10:45.730Z,57.21
2018-08-24T00:11:16.891Z,56.85
2018-08-24T00:11:48.008Z,57.06
2018-08-24T00:12:19.203Z,57.77
2018-08-24T00:12:50.380Z,57.93
2018-08-24T00:13:21.546Z,57.50
2018-08-24T00:13:52.712Z,57.61
2018-08-24T00:14:23.884Z,57.66
2018-08-24T00:14:55.056Z,57.91
2018-08-24T00:15:26.171Z,58.18
2018-08-24T00:15:57.316Z,58.32
2018-08-24T00:16:28.487Z,58.33
2018-08-24T00:16:59.757Z,58.90
2018-08-24T00:17:30.931Z,58.09
2018-08-24T00:18:02.104Z,58.48
2018-08-24T00:18:33.340Z,58.01
2018-08-24T00:19:04.505Z,58.27
2018-08-24T00:19:35.684Z,57.58
2018-08-24T00:20:06.892Z,57.65
2018-08-24T00:20:38.096Z,58.29
2018-08-24T00:21:09.270Z,58.16
2018-08-24T00:21:40.528Z,58.27
2018-08-24T00:22:11.657Z,57.87
2018-08-24T00:22:42.762Z,57.78
2018-08-24T00:23:13.864Z,57.97
2018-08-24T00:23:45.033Z,58.63
2018-08-24T00:24:16.141Z,58.65
2018-08-24T00:24:47.312Z,58.40
2018-08-24T00:25:18.524Z,58.69
2018-08-24T00:25:49.680Z,58.58
2018-08-24T00:26:20.847Z,58.81
2018-08-24T00:26:51.960Z,59.41
2018-08-24T00:27:23.135Z,59.28
2018-08-24T00:27:54.353Z,59.19
2018-08-24T00:28:25.584Z,59.20
2018-08-24T00:28:56.752Z,59.43
2018-08-24T00:29:27.880Z,58.76
2018-08-24T00:29:58.988Z,59.18
2018-08-24T00:30:30.140Z,59.25
2018-08-24T00:31:01.301Z,59.27
2018-08-24T00:31:32.426Z,59.33
2018-08-24T00:32:03.539Z,58.71
2018-08-24T00:32:35.220Z,58.95
2018-08-24T00:33:06.396Z,59.43
2018-08-24T00:33:37.569Z,59.17
2018-08-24T00:34:08.741Z,60.01
2018-08-24T00:34:39.854Z,59.75
2018-08-24T00:35:11.012Z,59.60
2018-08-24T00:35:42.206Z,59.74
2018-08-24T00:36:13.367Z,60.05
2018-08-24T00:36:44.541Z,60.59
2018-08-24T00:37:15.687Z,59.94
2018-08-24T00:37:46.816Z,60.44
2018-08-24T00:38:17.992Z,60.40
2018-08-24T00:38:49.114Z,60.66
2018-08-24T00:39:20.233Z,60.55
2018-08-24T00:39:51.392Z,60.71
2018-08-24T00:40:22.565Z,60.48
2018-08-24T00:40:53.684Z,59.91
2018-08-24T00:41:24.848Z,60.07
2018-08-24T00:41:55.961Z,59.91
2018-08-24T00:42:27.165Z,60.47
2018-08-24T00:42:58.337Z,59.86
2018-08-24T00:43:29.521Z,60.49
2018-08-24T00:44:00.679Z,60.77
2018-08-24T00:44:31.848Z,60.07
2018-08-24T00:45:03.031Z,60.08
2018-08-24T00:45:34.198Z,60.83
2018-08-24T00:46:05.445Z,61.22
2018-08-24T00:46:36.631Z,61.83
2018-08-24T00:47:07.739Z,61.60
2018-08-24T00:47:38.883Z,61.43
2018-08-24T00:48:10.932Z,61.17
2018-08-24T00:48:42.136Z,61.52
2018-08-24T00:49:13.309Z,62.42
2018-08-24T00:49:44.490Z,62.97
2018-08-24T00:50:15.617Z,64.15
2018-08-24T00:50:46.813Z,63.13
2018-08-24T00:51:17.931Z,64.04
2018-08-24T00:51:49.153Z,63.46
2018-08-24T00:52:20.339Z,62.90
2018-08-24T00:52:51.489Z,63.61
2018-08-24T00:53:22.723Z,62.47
2018-08-24T00:53:53.904Z,63.10
2018-08-24T00:54:25.080Z,62.74
2018-08-24T00:54:56.179Z,62.47
2018-08-24T00:55:27.431Z,62.71
2018-08-24T00:55:58.589Z,63.27
2018-08-24T00:56:29.714Z,62.93
2018-08-24T00:57:00.881Z,62.68
2018-08-24T00:57:32.036Z,63.08
2018-08-24T00:58:03.293Z,62.88
2018-08-24T00:58:34.477Z,63.54
2018-08-24T00:59:05.662Z,63.17
2018-08-24T00:59:36.904Z,63.81
2018-08-24T01:00:08.015Z,63.97
2018-08-24T01:00:39.177Z,63.86
2018-08-24T01:01:10.345Z,64.28
2018-08-24T01:01:41.538Z,63.75
2018-08-24T01:02:12.656Z,64.63
2018-08-24T01:02:43.828Z,64.34
2018-08-24T01:03:15.032Z,64.21
2018-08-24T01:03:46.252Z,64.20
2018-08-24T01:04:17.435Z,63.96
2018-08-24T01:04:48.603Z,64.68
2018-08-24T01:05:19.845Z,64.02
2018-08-24T01:05:51.028Z,64.26
2018-08-24T01:06:22.192Z,64.16
2018-08-24T01:06:53.391Z,64.16
2018-08-24T01:07:24.599Z,63.47
2018-08-24T01:07:55.711Z,63.54
2018-08-24T01:08:26.878Z,63.41
2018-08-24T01:08:58.108Z,63.81
2018-08-24T01:09:29.227Z,63.12
2018-08-24T01:10:00.411Z,63.50
2018-08-24T01:10:31.531Z,63.36
2018-08-24T01:11:02.643Z,63.77
2018-08-24T01:11:33.760Z,63.22
2018-08-24T01:12:04.879Z,63.08
2018-08-24T01:12:35.989Z,63.53
2018-08-24T01:13:07.100Z,63.10
2018-08-24T01:13:38.284Z,62.73
2018-08-24T01:14:09.538Z,62.70
2018-08-24T01:14:40.719Z,62.42
2018-08-24T01:15:11.829Z,62.48
2018-08-24T01:15:43.053Z,62.19
2018-08-24T01:16:14.226Z,62.23
2018-08-24T01:16:45.338Z,63.04
2018-08-24T01:17:16.549Z,62.27
2018-08-24T01:17:47.753Z,62.12
2018-08-24T01:18:18.867Z,62.10
2018-08-24T01:18:50.089Z,61.94
2018-08-24T01:19:21.213Z,61.58
2018-08-24T01:19:52.341Z,62.15
2018-08-24T01:20:23.512Z,61.87
2018-08-24T01:20:54.699Z,61.94
2018-08-24T01:21:25.855Z,62.45
2018-08-24T01:21:56.974Z,62.34
2018-08-24T01:22:28.182Z,61.69
2018-08-24T01:22:59.295Z,61.71
2018-08-24T01:23:30.411Z,61.78
2018-08-24T01:24:01.528Z,61.85
2018-08-24T01:24:32.636Z,62.26
2018-08-24T01:25:03.745Z,61.65
2018-08-24T01:25:34.863Z,61.53
2018-08-24T01:26:06.064Z,62.00
2018-08-24T01:26:37.179Z,61.41
2018-08-24T01:27:08.288Z,61.49
2018-08-24T01:27:39.449Z,61.49
2018-08-24T01:28:10.648Z,61.72
2018-08-24T01:28:41.765Z,61.59
2018-08-24T01:29:12.878Z,61.72
2018-08-24T01:29:44.037Z,61.73
2018-08-24T01:30:15.241Z,62.44
2018-08-24T01:30:46.367Z,62.50
2018-08-24T01:31:17.503Z,62.59
2018-08-24T01:31:48.721Z,62.22
2018-08-24T01:32:19.833Z,62.88
2018-08-24T01:32:51.036Z,62.42
2018-08-24T01:33:22.159Z,62.56
2018-08-24T01:33:53.344Z,62.60
2018-08-24T01:34:24.573Z,63.36
2018-08-24T01:34:55.698Z,62.57
2018-08-24T01:35:26.819Z,62.48
2018-08-24T01:35:58.056Z,62.37
2018-08-24T01:36:29.325Z,62.25
2018-08-24T01:37:00.479Z,62.24
2018-08-24T01:37:31.643Z,62.59
2018-08-24T01:38:02.861Z,62.53
2018-08-24T01:38:34.026Z,62.40
2018-08-24T01:39:05.204Z,63.15
2018-08-24T01:39:36.316Z,62.20
2018-08-24T01:40:07.420Z,62.54
2018-08-24T01:40:38.531Z,62.94
2018-08-24T01:41:09.710Z,62.66
2018-08-24T01:41:40.875Z,62.79
2018-08-24T01:42:11.995Z,62.77
2018-08-24T01:42:43.192Z,63.17
2018-08-24T01:43:14.370Z,63.42
2018-08-24T01:43:45.473Z,63.29
2018-08-24T01:44:16.641Z,62.82
2018-08-24T01:44:47.804Z,63.93
2018-08-24T01:45:18.956Z,63.51
2018-08-24T01:45:50.300Z,63.48
2018-08-24T01:46:21.451Z,63.98
2018-08-24T01:46:52.566Z,64.86
2018-08-24T01:47:23.726Z,64.77
2018-08-24T01:47:54.900Z,65.25
2018-08-24T01:48:26.132Z,65.46
2018-08-24T01:48:57.307Z,64.46
2018-08-24T01:49:28.493Z,64.46
2018-08-24T01:49:59.671Z,64.02
2018-08-24T01:50:30.801Z,64.70
2018-08-24T01:51:02.060Z,64.57
2018-08-24T01:51:33.332Z,64.99
2018-08-24T01:52:04.540Z,64.48
2018-08-24T01:52:35.657Z,64.92
2018-08-24T01:53:06.833Z,64.68
2018-08-24T01:53:37.952Z,65.34
2018-08-24T01:54:09.077Z,65.56
2018-08-24T01:54:40.184Z,65.37
2018-08-24T01:55:11.344Z,65.43
2018-08-24T01:55:42.540Z,65.00
2018-08-24T01:56:13.718Z,65.76
2018-08-24T01:56:44.924Z,66.00
2018-08-24T01:57:16.145Z,65.87
2018-08-24T01:57:47.325Z,65.49
2018-08-24T01:58:18.435Z,66.33
2018-08-24T01:58:49.655Z,65.71
2018-08-24T01:59:20.811Z,66.00
2018-08-24T01:59:51.952Z,65.83
2018-08-24T02:00:23.180Z,66.32
2018-08-24T02:00:54.362Z,66.56
2018-08-24T02:01:25.484Z,66.74
2018-08-24T02:01:56.608Z,66.51
2018-08-24T02:02:27.765Z,66.41
2018-08-24T02:02:59.001Z,67.09
2018-08-24T02:03:30.212Z,66.79
2018-08-24T02:04:01.345Z,66.70
2018-08-24T02:04:32.500Z,66.65
2018-08-24T02:05:03.651Z,67.19
2018-08-24T02:05:34.817Z,67.42
2018-08-24T02:06:05.961Z,68.00
2018-08-24T02:06:37.137Z,67.96
2018-08-24T02:07:08.325Z,67.98
2018-08-24T02:07:39.452Z,68.17
2018-08-24T02:08:10.571Z,67.80
2018-08-24T02:08:41.692Z,68.31
2018-08-24T02:09:12.811Z,67.79
2018-08-24T02:09:43.930Z,67.54
2018-08-24T02:10:15.097Z,67.54
2018-08-24T02:10:46.211Z,67.11
2018-08-24T02:11:17.332Z,67.73
2018-08-24T02:11:48.486Z,67.49
2018-08-24T02:12:19.599Z,67.19
2018-08-24T02:12:50.721Z,67.73
2018-08-24T02:13:21.895Z,67.57
2018-08-24T02:13:53.017Z,67.77
2018-08-24T02:14:24.252Z,68.17
2018-08-24T02:14:55.384Z,67.75
2018-08-24T02:15:26.503Z,67.53
2018-08-24T02:15:57.655Z,67.60
2018-08-24T02:16:28.824Z,68.26
2018-08-24T02:17:00.056Z,68.26
2018-08-24T02:17:31.330Z,68.25
2018-08-24T02:18:02.566Z,67.67
2018-08-24T02:18:33.775Z,68.04
2018-08-24T02:19:04.900Z,68.21
2018-08-24T02:19:36.077Z,68.07
2018-08-24T02:20:07.266Z,67.98
2018-08-24T02:20:38.376Z,68.99
2018-08-24T02:21:09.493Z,68.46
2018-08-24T02:21:40.620Z,68.85
2018-08-24T02:22:11.817Z,69.23
2018-08-24T02:22:43.009Z,68.51
2018-08-24T02:23:14.173Z,68.56
2018-08-24T02:23:45.301Z,68.69
2018-08-24T02:24:16.416Z,68.73
2018-08-24T02:24:47.646Z,69.60
2018-08-24T02:25:18.776Z,69.38
2018-08-24T02:25:49.949Z,68.92
2018-08-24T02:26:21.134Z,68.66
2018-08-24T02:26:52.322Z,69.18
2018-08-24T02:27:23.440Z,69.19
2018-08-24T02:27:54.666Z,68.90
2018-08-24T02:28:25.788Z,69.16
2018-08-24T02:28:56.911Z,69.16
2018-08-24T02:29:28.088Z,68.90
2018-08-24T02:29:59.360Z,69.04
2018-08-24T02:30:30.483Z,68.84
2018-08-24T02:31:01.685Z,69.32
2018-08-24T02:31:32.854Z,68.35
2018-08-24T02:32:04.070Z,69.24
2018-08-24T02:32:35.241Z,68.45
2018-08-24T02:33:06.363Z,68.50
2018-08-24T02:33:37.600Z,69.21
2018-08-24T02:34:08.752Z,68.33
2018-08-24T02:34:39.868Z,68.80
2018-08-24T02:35:11.044Z,69.27
2018-08-24T02:35:42.153Z,68.60
2018-08-24T02:36:13.335Z,68.74
2018-08-24T02:36:44.500Z,68.87
2018-08-24T02:37:15.620Z,68.90
2018-08-24T02:37:46.729Z,68.73
2018-08-24T02:38:17.845Z,69.08
2018-08-24T02:38:49.056Z,68.80
2018-08-24T02:39:20.183Z,68.75
2018-08-24T02:39:51.298Z,69.32
2018-08-24T02:40:22.469Z,69.22
2018-08-24T02:40:53.649Z,68.79
2018-08-24T02:41:24.843Z,68.98
2018-08-24T02:41:55.972Z,68.22
2018-08-24T02:42:27.173Z,68.61
2018-08-24T02:42:58.312Z,68.68
2018-08-24T02:43:29.533Z,68.85
2018-08-24T02:44:00.721Z,69.16
2018-08-24T02:44:31.945Z,68.90
2018-08-24T02:45:03.116Z,69.67
2018-08-24T02:45:34.269Z,69.03
2018-08-24T02:46:05.485Z,69.49
2018-08-24T02:46:36.724Z,69.10
2018-08-24T02:47:07.883Z,69.16
2018-08-24T02:47:39.010Z,69.61
2018-08-24T02:48:10.181Z,68.98
2018-08-24T02:48:41.348Z,69.07
2018-08-24T02:49:12.461Z,69.21
2018-08-24T02:49:43.684Z,68.77
2018-08-24T02:50:14.917Z,68.43
2018-08-24T02:50:46.081Z,69.02
2018-08-24T02:51:17.193Z,69.06
2018-08-24T02:51:48.304Z,68.24
2018-08-24T02:52:19.432Z,69.22
2018-08-24T02:52:50.558Z,68.74
2018-08-24T02:53:21.727Z,69.61
2018-08-24T02:53:52.848Z,68.90
2018-08-24T02:54:24.031Z,68.83
2018-08-24T02:54:55.217Z,69.65
2018-08-24T02:55:26.426Z,69.31
2018-08-24T02:55:57.664Z,69.05
2018-08-24T02:56:28.885Z,69.31
2018-08-24T02:57:00.060Z,69.71
2018-08-24T02:57:31.276Z,70.05
2018-08-24T02:58:02.428Z,70.07
2018-08-24T02:58:33.596Z,69.91
2018-08-24T02:59:04.720Z,69.25
2018-08-24T02:59:35.836Z,69.77
2018-08-24T03:00:07.048Z,69.46
2018-08-24T03:00:38.225Z,69.38
2018-08-24T03:01:09.399Z,69.54
2018-08-24T03:01:40.576Z,69.49
2018-08-24T03:02:11.691Z,69.50
2018-08-24T03:02:42.810Z,69.53
2018-08-24T03:03:14.001Z,69.09
2018-08-24T03:03:45.154Z,69.27
2018-08-24T03:04:16.383Z,68.68
2018-08-24T03:04:47.555Z,68.82
2018-08-24T03:05:18.824Z,68.59
2018-08-24T03:05:49.952Z,69.54
2018-08-24T03:06:21.177Z,69.28
2018-08-24T03:06:52.413Z,68.60
2018-08-24T03:07:23.606Z,69.49
2018-08-24T03:07:55.116Z,69.12
2018-08-24T03:08:26.311Z,69.17
2018-08-24T03:08:57.460Z,69.52
2018-08-24T03:09:28.632Z,69.23
2018-08-24T03:09:59.803Z,69.84
2018-08-24T03:10:30.997Z,69.84
2018-08-24T03:11:02.234Z,69.55
2018-08-24T03:11:33.408Z,70.20
2018-08-24T03:12:04.550Z,70.36
2018-08-24T03:12:35.792Z,70.02
2018-08-24T03:13:06.985Z,70.55
2018-08-24T03:13:38.236Z,70.47
2018-08-24T03:14:09.460Z,70.79
2018-08-24T03:14:40.703Z,70.61
2018-08-24T03:15:11.876Z,70.05
2018-08-24T03:15:43.065Z,70.37
2018-08-24T03:16:14.331Z,70.75
2018-08-24T03:16:45.429Z,70.77
2018-08-24T03:17:16.635Z,70.90
2018-08-24T03:17:47.753Z,70.63
2018-08-24T03:18:18.944Z,70.54
2018-08-24T03:18:50.065Z,70.73
2018-08-24T03:19:21.278Z,70.07
2018-08-24T03:19:52.405Z,70.69
2018-08-24T03:20:23.570Z,70.11
2018-08-24T03:20:54.709Z,70.25
2018-08-24T03:21:25.875Z,70.89
2018-08-24T03:21:57.001Z,70.04
2018-08-24T03:22:28.115Z,70.40
2018-08-24T03:22:59.292Z,70.81
2018-08-24T03:23:30.447Z,70.23
2018-08-24T03:24:01.568Z,70.37
2018-08-24T03:24:32.768Z,69.95
2018-08-24T03:25:03.885Z,70.08
2018-08-24T03:25:35.070Z,70.00
2018-08-24T03:26:06.309Z,70.08
2018-08-24T03:26:37.476Z,70.62
2018-08-24T03:27:08.591Z,70.34
2018-08-24T03:27:39.812Z,70.31
2018-08-24T03:28:10.992Z,70.68
2018-08-24T03:28:42.173Z,70.27
2018-08-24T03:29:13.296Z,70.27
2018-08-24T03:29:44.474Z,70.14
2018-08-24T03:30:15.584Z,70.98
2018-08-24T03:30:46.704Z,70.90
2018-08-24T03:31:17.945Z,71.01
2018-08-24T03:31:49.072Z,71.05
2018-08-24T03:32:20.192Z,70.52
2018-08-24T03:32:51.344Z,71.03
2018-08-24T03:33:22.503Z,71.20
2018-08-24T03:33:53.673Z,71.17
2018-08-24T03:34:24.891Z,71.13
2018-08-24T03:34:56.008Z,70.83
2018-08-24T03:35:27.130Z,70.59
2018-08-24T03:35:58.244Z,70.75
2018-08-24T03:36:29.361Z,71.06
2018-08-24T03:37:00.526Z,70.72
2018-08-24T03:37:31.657Z,71.10
2018-08-24T03:38:02.815Z,71.09
2018-08-24T03:38:33.953Z,71.31
2018-08-24T03:39:05.072Z,70.82
2018-08-24T03:39:36.188Z,71.64
2018-08-24T03:40:07.360Z,71.01
2018-08-24T03:40:38.560Z,71.75
2018-08-24T03:41:09.678Z,71.57
2018-08-24T03:41:40.803Z,70.78
2018-08-24T03:42:11.990Z,71.19
2018-08-24T03:42:43.169Z,71.46
2018-08-24T03:43:14.385Z,71.25
2018-08-24T03:43:45.512Z,70.69
2018-08-24T03:44:16.631Z,71.02
2018-08-24T03:44:47.754Z,71.10
2018-08-24T03:45:18.874Z,70.44
2018-08-24T03:45:50.000Z,70.61
2018-08-24T03:46:21.128Z,71.11
2018-08-24T03:46:52.350Z,71.14
2018-08-24T03:47:23.527Z,70.40
2018-08-24T03:47:54.692Z,70.89
2018-08-24T03:48:25.920Z,70.55
2018-08-24T03:48:57.096Z,70.44
2018-08-24T03:49:28.216Z,70.04
2018-08-24T03:49:59.335Z,70.37
2018-08-24T03:50:30.505Z,70.46
2018-08-24T03:51:01.689Z,70.79
2018-08-24T03:51:32.853Z,70.45
2018-08-24T03:52:04.023Z,71.05
2018-08-24T03:52:35.143Z,70.94
2018-08-24T03:53:06.363Z,70.89
2018-08-24T03:53:37.554Z,70.54
2018-08-24T03:54:08.684Z,70.73
2018-08-24T03:54:39.853Z,70.38
2018-08-24T03:55:11.035Z,70.77
2018-08-24T03:55:42.266Z,70.35
2018-08-24T03:56:13.382Z,70.40
2018-08-24T03:56:44.496Z,69.77
2018-08-24T03:57:15.673Z,70.18
2018-08-24T03:57:46.789Z,69.60
2018-08-24T03:58:18.030Z,68.46
2018-08-24T03:58:49.215Z,69.14
2018-08-24T03:59:20.372Z,68.58
2018-08-24T03:59:51.529Z,67.90
2018-08-24T04:00:22.701Z,68.00
2018-08-24T04:00:53.954Z,67.25
2018-08-24T04:01:25.074Z,67.43
2018-08-24T04:01:56.303Z,66.85
2018-08-24T04:02:27.431Z,66.94
2018-08-24T04:02:58.605Z,67.18
2018-08-24T04:03:29.844Z,67.09
2018-08-24T04:04:00.974Z,66.50
2018-08-24T04:04:32.143Z,67.23
2018-08-24T04:05:03.313Z,66.74
2018-08-24T04:05:34.453Z,67.45
2018-08-24T04:06:05.566Z,66.79
2018-08-24T04:06:36.676Z,67.36
2018-08-24T04:07:07.845Z,66.71
2018-08-24T04:07:38.962Z,66.52
2018-08-24T04:08:10.075Z,66.93
2018-08-24T04:08:41.252Z,66.54
2018-08-24T04:09:12.412Z,66.31
2018-08-24T04:09:43.523Z,66.54
2018-08-24T04:10:14.691Z,65.30
2018-08-24T04:10:45.956Z,65.44
2018-08-24T04:11:17.088Z,64.44
2018-08-24T04:11:48.318Z,63.96
2018-08-24T04:12:19.504Z,63.05
2018-08-24T04:12:50.678Z,62.79
2018-08-24T04:13:21.828Z,61.91
2018-08-24T04:13:53.027Z,62.11
2018-08-24T04:14:24.250Z,61.01
2018-08-24T04:14:55.415Z,60.70
2018-08-24T04:15:26.531Z,60.24
2018-08-24T04:15:57.648Z,60.04
2018-08-24T04:16:28.843Z,59.40
2018-08-24T04:16:59.961Z,59.89
2018-08-24T04:17:31.128Z,59.17
2018-08-24T04:18:02.298Z,59.11
2018-08-24T04:18:33.475Z,58.61
2018-08-24T04:19:04.675Z,58.01
2018-08-24T04:19:35.863Z,57.75
2018-08-24T04:20:06.988Z,57.46
2018-08-24T04:20:38.157Z,57.76
2018-08-24T04:21:09.318Z,57.49
2018-08-24T04:21:40.518Z,57.34
2018-08-24T04:22:11.684Z,57.09
2018-08-24T04:22:42.808Z,56.07
2018-08-24T04:23:13.925Z,56.44
2018-08-24T04:23:45.043Z,55.43
2018-08-24T04:24:16.219Z,55.68
2018-08-24T04:24:47.393Z,54.81
2018-08-24T04:25:18.621Z,54.57
2018-08-24T04:25:49.835Z,54.54
2018-08-24T04:26:21.001Z,54.19
2018-08-24T04:26:52.149Z,54.03
2018-08-24T04:27:23.374Z,53.83
2018-08-24T04:27:54.553Z,52.70
2018-08-24T04:28:25.773Z,52.67
2018-08-24T04:28:56.895Z,52.60
2018-08-24T04:29:28.068Z,52.32
2018-08-24T04:29:59.228Z,52.63
2018-08-24T04:30:30.503Z,52.31
2018-08-24T04:31:01.677Z,53.21
2018-08-24T04:31:32.796Z,52.62
2018-08-24T04:32:03.900Z,53.09
2018-08-24T04:32:35.022Z,52.25
2018-08-24T04:33:06.199Z,52.66
2018-08-24T04:33:37.326Z,51.79
2018-08-24T04:34:08.510Z,51.80
2018-08-24T04:34:39.693Z,51.54
2018-08-24T04:35:10.827Z,52.20
2018-08-24T04:35:41.980Z,52.16
2018-08-24T04:36:13.157Z,51.94
2018-08-24T04:36:44.309Z,51.55
2018-08-24T04:37:15.537Z,51.62
2018-08-24T04:37:46.718Z,51.09
2018-08-24T04:38:17.828Z,51.33
2018-08-24T04:38:48.933Z,51.29
2018-08-24T04:39:20.082Z,50.51
2018-08-24T04:39:51.197Z,50.79
2018-08-24T04:40:22.391Z,50.98
2018-08-24T04:40:53.576Z,51.03
2018-08-24T04:41:24.742Z,50.56
2018-08-24T04:41:55.918Z,50.71
2018-08-24T04:42:27.089Z,50.63
2018-08-24T04:42:58.272Z,50.21
2018-08-24T04:43:29.498Z,49.74
2018-08-24T04:44:00.618Z,48.85
2018-08-24T04:44:31.730Z,49.10
2018-08-24T04:45:02.914Z,49.88
2018-08-24T04:45:34.198Z,49.20
2018-08-24T04:46:05.437Z,49.45
2018-08-24T04:46:36.667Z,49.24
2018-08-24T04:47:07.793Z,48.79
2018-08-24T04:47:38.911Z,47.68
2018-08-24T04:48:10.124Z,47.70
2018-08-24T04:48:41.245Z,47.15
2018-08-24T04:49:12.409Z,47.75
2018-08-24T04:49:43.542Z,47.41
2018-08-24T04:50:14.716Z,46.34
2018-08-24T04:50:45.857Z,47.25
2018-08-24T04:51:17.070Z,46.14
2018-08-24T04:51:48.192Z,46.30
2018-08-24T04:52:19.355Z,46.58
2018-08-24T04:52:50.529Z,46.42
2018-08-24T04:53:21.664Z,46.05
2018-08-24T04:53:52.861Z,46.28
2018-08-24T04:54:24.095Z,46.11
2018-08-24T04:54:55.281Z,46.11
2018-08-24T04:55:26.464Z,46.49
2018-08-24T04:55:57.654Z,46.94
2018-08-24T04:56:28.841Z,46.83
2018-08-24T04:57:00.035Z,46.98
2018-08-24T04:57:31.244Z,46.11
2018-08-24T04:58:02.378Z,46.29
2018-08-24T04:58:33.565Z,45.29
2018-08-24T04:59:04.801Z,45.53
2018-08-24T04:59:35.967Z,45.17
2018-08-24T05:00:07.139Z,46.31
2018-08-24T05:00:38.296Z,45.01
2018-08-24T05:01:09.426Z,45.03
2018-08-24T05:01:40.561Z,45.26
2018-08-24T05:02:11.744Z,45.32
2018-08-24T05:02:42.906Z,45.44
2018-08-24T05:03:14.085Z,44.94
2018-08-24T05:03:45.206Z,44.74
2018-08-24T05:04:16.329Z,43.76
2018-08-24T05:04:47.451Z,43.35
2018-08-24T05:05:18.665Z,44.36
2018-08-24T05:05:49.932Z,44.80
2018-08-24T05:06:21.006Z,44.73
2018-08-24T05:06:52.233Z,44.84
2018-08-24T05:07:23.356Z,44.90
2018-08-24T05:07:54.481Z,45.42
2018-08-24T05:08:25.719Z,44.83
2018-08-24T05:08:56.911Z,44.36
2018-08-24T05:09:28.023Z,44.94
2018-08-24T05:09:59.142Z,45.50
2018-08-24T05:10:30.304Z,44.38
2018-08-24T05:11:01.477Z,44.23
2018-08-24T05:11:32.659Z,44.06
2018-08-24T05:12:03.804Z,44.27
2018-08-24T05:12:35.028Z,44.73
2018-08-24T05:13:06.217Z,44.23
2018-08-24T05:13:37.339Z,44.79
2018-08-24T05:14:08.511Z,43.87
2018-08-24T05:14:39.760Z,44.13
2018-08-24T05:15:11.001Z,44.00
2018-08-24T05:15:42.173Z,43.66
2018-08-24T05:16:13.287Z,44.27
2018-08-24T05:16:44.410Z,44.50
2018-08-24T05:17:15.616Z,43.64
2018-08-24T05:17:46.853Z,44.12
2018-08-24T05:18:17.972Z,43.71
2018-08-24T05:18:49.140Z,43.61
2018-08-24T05:19:20.272Z,43.94
2018-08-24T05:19:51.440Z,44.56
2018-08-24T05:20:22.631Z,44.55
2018-08-24T05:20:53.804Z,44.65
2018-08-24T05:21:25.000Z,44.64
2018-08-24T05:21:56.120Z,44.32
2018-08-24T05:22:27.339Z,45.53
2018-08-24T05:22:58.560Z,44.98
2018-08-24T05:23:29.672Z,44.85
2018-08-24T05:24:00.901Z,44.95
2018-08-24T05:24:32.031Z,44.49
2018-08-24T05:25:03.242Z,44.11
2018-08-24T05:25:34.363Z,44.70
2018-08-24T05:26:05.537Z,44.14
2018-08-24T05:26:36.668Z,43.94
2018-08-24T05:27:07.787Z,43.57
2018-08-24T05:27:39.050Z,43.11
2018-08-24T05:28:10.297Z,43.49
2018-08-24T05:28:41.437Z,43.07
2018-08-24T05:29:12.552Z,43.19
2018-08-24T05:29:43.819Z,43.13
2018-08-24T05:30:15.015Z,43.61
2018-08-24T05:30:46.140Z,43.87
2018-08-24T05:31:17.256Z,43.57
2018-08-24T05:31:48.375Z,43.53
2018-08-24T05:32:19.493Z,44.39
2018-08-24T05:32:50.761Z,44.24
2018-08-24T05:33:21.876Z,43.80
2018-08-24T05:33:53.002Z,43.93
2018-08-24T05:34:24.180Z,43.87
2018-08-24T05:34:55.489Z,43.68
2018-08-24T05:35:26.680Z,43.77
2018-08-24T05:35:57.880Z,44.11
2018-08-24T05:36:29.125Z,43.74
2018-08-24T05:37:00.321Z,43.17
2018-08-24T05:37:31.500Z,43.57
2018-08-24T05:38:02.640Z,43.69
2018-08-24T05:38:33.812Z,43.50
2018-08-24T05:39:05.054Z,43.39
2018-08-24T05:39:36.245Z,42.74
2018-08-24T05:40:07.413Z,42.89
2018-08-24T05:40:38.709Z,42.58
2018-08-24T05:41:09.842Z,41.79
2018-08-24T05:41:41.028Z,42.29
2018-08-24T05:42:12.156Z,42.40
2018-08-24T05:42:43.321Z,42.52
2018-08-24T05:43:14.500Z,42.90
2018-08-24T05:43:45.622Z,42.38
2018-08-24T05:44:16.732Z,42.84
2018-08-24T05:44:47.907Z,42.56
2018-08-24T05:45:19.028Z,42.24
2018-08-24T05:45:50.204Z,42.32
2018-08-24T05:46:21.396Z,42.58
2018-08-24T05:46:52.517Z,42.61
2018-08-24T05:47:23.705Z,42.64
2018-08-24T05:47:54.827Z,42.57
2018-08-24T05:48:26.017Z,42.72
2018-08-24T05:48:57.291Z,43.00
2018-08-24T05:49:28.478Z,43.16
2018-08-24T05:49:59.638Z,43.87
2018-08-24T05:50:30.826Z,44.01
2018-08-24T05:51:02.041Z,44.09
2018-08-24T05:51:33.205Z,44.22
2018-08-24T05:52:04.454Z,44.64
2018-08-24T05:52:35.579Z,44.85
2018-08-24T05:53:06.762Z,45.07
2018-08-24T05:53:37.894Z,44.98
2018-08-24T05:54:09.024Z,45.31
2018-08-24T05:54:40.271Z,45.90
2018-08-24T05:55:11.448Z,46.18
2018-08-24T05:55:42.723Z,46.68
2018-08-24T05:56:13.838Z,45.96
2018-08-24T05:56:44.963Z,45.83
2018-08-24T05:57:16.144Z,45.83
2018-08-24T05:57:47.373Z,45.70
2018-08-24T05:58:18.552Z,46.27
2018-08-24T05:58:49.802Z,46.06
2018-08-24T05:59:21.001Z,46.17
2018-08-24T05:59:52.261Z,47.09
2018-08-24T06:00:23.444Z,47.04
2018-08-24T06:00:54.569Z,46.69
2018-08-24T06:01:25.750Z,45.94
2018-08-24T06:01:56.936Z,46.48
2018-08-24T06:02:28.059Z,46.83
2018-08-24T06:02:59.180Z,46.79
2018-08-24T06:03:30.308Z,46.18
2018-08-24T06:04:01.496Z,46.49
2018-08-24T06:04:32.628Z,46.57
2018-08-24T06:05:03.849Z,46.28
2018-08-24T06:05:35.094Z,46.34
2018-08-24T06:06:06.216Z,46.58
2018-08-24T06:06:37.363Z,46.71
2018-08-24T06:07:08.477Z,46.65
2018-08-24T06:07:39.673Z,46.61
2018-08-24T06:08:10.801Z,46.72
2018-08-24T06:08:41.927Z,46.65
2018-08-24T06:09:13.125Z,46.99
2018-08-24T06:09:44.301Z,46.47
2018-08-24T06:10:15.479Z,47.11
2018-08-24T06:10:46.640Z,47.41
2018-08-24T06:11:17.860Z,47.24
2018-08-24T06:11:49.045Z,46.71
2018-08-24T06:12:20.233Z,47.05
2018-08-24T06:12:51.405Z,47.00
2018-08-24T06:13:22.540Z,46.91
2018-08-24T06:13:53.725Z,46.49
2018-08-24T06:14:24.844Z,46.96
2018-08-24T06:14:56.104Z,46.65
2018-08-24T06:15:27.298Z,46.92
2018-08-24T06:15:58.551Z,46.77
2018-08-24T06:16:29.698Z,46.99
2018-08-24T06:17:00.883Z,47.15
2018-08-24T06:17:32.014Z,46.95
2018-08-24T06:18:03.249Z,46.92
2018-08-24T06:18:34.373Z,47.17
2018-08-24T06:19:05.572Z,46.68
2018-08-24T06:19:36.718Z,46.41
2018-08-24T06:20:07.959Z,46.47
2018-08-24T06:20:39.178Z,46.41
2018-08-24T06:21:10.379Z,46.35
2018-08-24T06:21:41.500Z,46.37
2018-08-24T06:22:12.728Z,46.15
2018-08-24T06:22:43.899Z,45.98
2018-08-24T06:23:15.026Z,46.10
2018-08-24T06:23:46.190Z,46.25
2018-08-24T06:24:17.397Z,46.08
2018-08-24T06:24:48.536Z,46.02
2018-08-24T06:25:19.758Z,45.89
2018-08-24T06:25:50.889Z,46.31
2018-08-24T06:26:22.007Z,46.41
2018-08-24T06:26:53.123Z,46.38
2018-08-24T06:27:24.317Z,46.42
2018-08-24T06:27:55.431Z,46.44
2018-08-24T06:28:26.540Z,46.56
2018-08-24T06:28:57.760Z,46.12
2018-08-24T06:29:29.001Z,46.69
2018-08-24T06:30:00.214Z,46.48
2018-08-24T06:30:31.341Z,46.66
2018-08-24T06:31:02.515Z,46.44
2018-08-24T06:31:33.652Z,46.50
2018-08-24T06:32:04.772Z,46.64
2018-08-24T06:32:35.913Z,46.82
2018-08-24T06:33:07.142Z,46.42
2018-08-24T06:33:38.331Z,46.26
2018-08-24T06:34:09.500Z,46.37
2018-08-24T06:34:40.673Z,46.86
2018-08-24T06:35:11.916Z,46.81
2018-08-24T06:35:43.116Z,46.93
2018-08-24T06:36:14.232Z,46.65
2018-08-24T06:36:45.356Z,46.62
2018-08-24T06:37:16.482Z,46.46
2018-08-24T06:37:47.700Z,46.97
2018-08-24T06:38:18.868Z,47.58
2018-08-24T06:38:50.086Z,47.44
2018-08-24T06:39:21.326Z,47.42
2018-08-24T06:39:52.505Z,47.94
2018-08-24T06:40:23.674Z,47.74
2018-08-24T06:40:54.873Z,47.58
2018-08-24T06:41:26.051Z,47.60